createdAt,value
2022-09-15T00:00:20.299Z,31.20
2022-09-15T00:00:53.975Z,36.80
2022-09-15T00:01:26.381Z,34.33
2022-09-15T00:01:58.945Z,32.97
2022-09-15T00:02:31.743Z,34.28
2022-09-15T00:03:04.251Z,35.17
2022-09-15T00:03:36.845Z,33.25
2022-09-15T00:04:09.392Z,32.85
2022-09-15T00:04:41.702Z,36.22
2022-09-15T00:05:14.634Z,32.72
2022-09-15T00:05:47.105Z,36.67
2022-09-15T00:06:19.416Z,35.65
2022-09-15T00:06:51.748Z,32.83
2022-09-15T00:07:24.444Z,32.85
2022-09-15T00:07:56.769Z,35.00
2022-09-15T00:08:29.117Z,31.92
2022-09-15T00:09:01.707Z,33.42
2022-09-15T00:09:34.485Z,33.88
2022-09-15T00:10:07.027Z,32.78
2022-09-15T00:10:49.469Z,31.33
2022-09-15T00:11:23.425Z,31.50
2022-09-15T00:11:55.864Z,29.10
2022-09-15T00:12:28.184Z,32.42
2022-09-15T00:13:00.658Z,29.50
2022-09-15T00:13:33.646Z,32.58
2022-09-15T00:14:07.132Z,29.88
2022-09-15T00:14:39.373Z,29.08
2022-09-15T00:15:14.275Z,30.80
2022-09-15T00:15:46.832Z,32.47
2022-09-15T00:16:20.505Z,32.15
2022-09-15T00:16:52.878Z,31.42
2022-09-15T00:17:25.564Z,30.38
2022-09-15T00:17:57.953Z,31.52
2022-09-15T00:18:30.965Z,28.60
2022-09-15T00:19:04.017Z,26.73
2022-09-15T00:19:36.617Z,29.42
2022-09-15T00:20:09.271Z,28.55
2022-09-15T00:20:43.031Z,29.75
2022-09-15T00:21:17.650Z,34.97
2022-09-15T00:21:49.907Z,28.60
2022-09-15T00:22:22.827Z,26.33
2022-09-15T00:22:55.160Z,31.15
2022-09-15T00:23:27.438Z,35.17
2022-09-15T00:24:00.540Z,27.55
2022-09-15T00:24:33.168Z,32.20
2022-09-15T00:25:06.341Z,28.58
2022-09-15T00:25:46.102Z,33.42
2022-09-15T00:26:19.649Z,30.30
2022-09-15T00:26:51.981Z,27.27
2022-09-15T00:27:24.311Z,29.58
2022-09-15T00:27:56.908Z,30.27
2022-09-15T00:28:29.206Z,28.80
2022-09-15T00:29:02.906Z,31.48
2022-09-15T00:29:36.086Z,29.30
2022-09-15T00:30:08.664Z,30.58
2022-09-15T00:30:44.678Z,27.10
2022-09-15T00:31:18.271Z,30.60
2022-09-15T00:31:50.697Z,28.38
2022-09-15T00:32:23.147Z,28.95
2022-09-15T00:32:55.681Z,28.42
2022-09-15T00:33:27.958Z,28.88
2022-09-15T00:34:02.967Z,27.50
2022-09-15T00:34:35.501Z,28.45
2022-09-15T00:35:07.982Z,27.30
2022-09-15T00:35:41.102Z,28.38
2022-09-15T00:36:14.672Z,31.40
2022-09-15T00:36:46.954Z,25.92
2022-09-15T00:37:19.909Z,29.52
2022-09-15T00:37:52.156Z,26.33
2022-09-15T00:38:24.410Z,26.95
2022-09-15T00:38:56.995Z,29.85
2022-09-15T00:39:29.376Z,28.17
2022-09-15T00:40:02.064Z,27.17
2022-09-15T00:40:34.925Z,30.40
2022-09-15T00:41:08.723Z,26.38
2022-09-15T00:41:41.427Z,29.10
2022-09-15T00:42:17.354Z,29.17
2022-09-15T00:42:49.773Z,29.27
2022-09-15T00:43:40.374Z,28.42
2022-09-15T00:44:18.554Z,27.30
2022-09-15T00:44:58.313Z,25.52
2022-09-15T00:45:30.657Z,26.65
2022-09-15T00:46:02.931Z,23.83
2022-09-15T00:46:38.374Z,24.98
2022-09-15T00:47:19.300Z,25.70
2022-09-15T00:47:52.289Z,29.30
2022-09-15T00:48:24.587Z,28.88
2022-09-15T00:48:56.820Z,27.42
2022-09-15T00:49:33.320Z,30.75
2022-09-15T00:50:08.444Z,28.73
2022-09-15T00:50:42.008Z,28.83
2022-09-15T00:51:17.048Z,28.75
2022-09-15T00:52:08.936Z,25.80
2022-09-15T00:52:45.528Z,25.55
2022-09-15T00:53:18.965Z,27.48
2022-09-15T00:53:52.153Z,29.60
2022-09-15T00:54:27.441Z,27.92
2022-09-15T00:55:05.773Z,27.48
2022-09-15T00:55:43.138Z,30.13
2022-09-15T00:56:16.201Z,30.10
2022-09-15T00:56:49.825Z,27.65
2022-09-15T00:57:42.358Z,23.90
2022-09-15T00:58:18.171Z,29.80
2022-09-15T00:58:53.323Z,28.98
2022-09-15T00:59:39.471Z,28.05
2022-09-15T01:00:13.190Z,26.23
2022-09-15T01:00:47.985Z,30.95
2022-09-15T01:01:20.411Z,26.25
2022-09-15T01:01:57.044Z,27.23
2022-09-15T01:02:30.727Z,26.65
2022-09-15T01:03:03.377Z,27.10
2022-09-15T01:03:36.892Z,29.13
2022-09-15T01:04:09.560Z,28.67
2022-09-15T01:04:42.048Z,32.20
2022-09-15T01:05:16.214Z,30.52
2022-09-15T01:05:53.914Z,33.10
2022-09-15T01:06:31.831Z,26.58
2022-09-15T01:07:05.059Z,25.08
2022-09-15T01:07:49.439Z,30.05
2022-09-15T01:08:41.926Z,26.90
2022-09-15T01:09:21.239Z,30.42
2022-09-15T01:09:55.724Z,27.10
2022-09-15T01:10:31.072Z,26.83
2022-09-15T01:11:03.453Z,30.52
2022-09-15T01:11:35.989Z,28.85
2022-09-15T01:12:08.336Z,29.63
2022-09-15T01:12:44.649Z,30.05
2022-09-15T01:13:17.040Z,28.92
2022-09-15T01:13:49.311Z,31.08
2022-09-15T01:14:21.573Z,31.75
2022-09-15T01:14:53.936Z,30.08
2022-09-15T01:15:28.953Z,32.08
2022-09-15T01:17:29.280Z,26.30
2022-09-15T01:18:20.424Z,28.77
2022-09-15T01:19:05.807Z,32.97
2022-09-15T01:19:40.708Z,29.80
2022-09-15T01:20:31.132Z,27.92
2022-09-15T01:21:17.550Z,28.80
2022-09-15T01:21:55.632Z,25.30
2022-09-15T01:22:49.014Z,26.30
2022-09-15T01:23:30.363Z,27.73
2022-09-15T01:24:02.550Z,23.88
2022-09-15T01:24:52.797Z,24.98
2022-09-15T01:25:35.334Z,24.13
2022-09-15T01:26:26.585Z,26.67
2022-09-15T01:27:13.669Z,25.48
2022-09-15T01:28:06.597Z,23.55
2022-09-15T01:28:57.343Z,26.15
2022-09-15T01:29:35.341Z,27.52
2022-09-15T01:30:17.479Z,25.15
2022-09-15T01:31:00.235Z,24.73
2022-09-15T01:31:58.449Z,27.58
2022-09-15T01:33:12.236Z,29.75
2022-09-15T01:34:06.089Z,26.95
2022-09-15T01:34:42.187Z,26.83
2022-09-15T01:35:17.288Z,24.80
2022-09-15T01:35:49.473Z,28.50
2022-09-15T01:36:47.831Z,27.50
2022-09-15T01:37:24.400Z,30.77
2022-09-15T01:38:01.076Z,28.48
2022-09-15T01:38:38.161Z,26.58
2022-09-15T01:39:18.471Z,27.88
2022-09-15T01:39:51.735Z,26.67
2022-09-15T01:40:27.200Z,26.33
2022-09-15T01:41:05.619Z,27.08
2022-09-15T01:41:44.448Z,29.17
2022-09-15T01:42:18.435Z,25.60
2022-09-15T01:42:51.647Z,22.98
2022-09-15T01:43:25.458Z,26.50
2022-09-15T01:44:00.972Z,23.65
2022-09-15T01:44:35.507Z,23.80
2022-09-15T01:45:09.813Z,24.85
2022-09-15T01:45:44.148Z,26.63
2022-09-15T01:46:19.776Z,23.13
2022-09-15T01:46:57.736Z,24.00
2022-09-15T01:47:30.529Z,24.67
2022-09-15T01:48:05.685Z,24.20
2022-09-15T01:48:40.064Z,28.55
2022-09-15T01:49:14.938Z,24.55
2022-09-15T01:50:05.688Z,24.90
2022-09-15T01:50:41.113Z,27.02
2022-09-15T01:51:14.078Z,24.45
2022-09-15T01:51:46.828Z,27.83
2022-09-15T01:52:21.695Z,27.63
2022-09-15T01:52:54.902Z,25.65
2022-09-15T01:53:27.378Z,27.00
2022-09-15T01:54:00.410Z,21.42
2022-09-15T01:54:37.655Z,24.50
2022-09-15T01:55:16.572Z,21.95
2022-09-15T01:55:54.338Z,22.90
2022-09-15T01:56:26.788Z,20.30
2022-09-15T01:56:59.350Z,24.27
2022-09-15T01:57:33.549Z,22.00
2022-09-15T01:58:05.871Z,24.30
2022-09-15T01:58:38.862Z,21.67
2022-09-15T01:59:11.383Z,18.60
2022-09-15T01:59:44.803Z,18.58
2022-09-15T02:00:17.193Z,22.80
2022-09-15T02:00:57.029Z,23.05
2022-09-15T02:01:32.874Z,22.13
2022-09-15T02:02:12.744Z,25.15
2022-09-15T02:02:49.020Z,26.33
2022-09-15T02:03:25.448Z,20.52
2022-09-15T02:04:04.248Z,22.67
2022-09-15T02:04:46.294Z,27.15
2022-09-15T02:05:20.271Z,26.15
2022-09-15T02:06:00.719Z,28.33
2022-09-15T02:06:53.452Z,28.70
2022-09-15T02:07:25.936Z,27.83
2022-09-15T02:08:25.313Z,22.98
2022-09-15T02:09:00.788Z,24.58
2022-09-15T02:09:36.089Z,25.55
2022-09-15T02:10:12.604Z,28.45
2022-09-15T02:11:01.050Z,24.20
2022-09-15T02:11:35.570Z,25.90
2022-09-15T02:12:20.151Z,27.75
2022-09-15T02:13:01.289Z,28.40
2022-09-15T02:13:35.194Z,24.85
2022-09-15T02:14:14.350Z,21.05
2022-09-15T02:14:48.222Z,20.38
2022-09-15T02:15:35.991Z,25.98
2022-09-15T02:16:20.017Z,17.48
2022-09-15T02:16:54.342Z,24.35
2022-09-15T02:17:29.871Z,22.70
2022-09-15T02:18:04.105Z,22.55
2022-09-15T02:18:44.752Z,22.90
2022-09-15T02:19:19.942Z,30.45
2022-09-15T02:20:07.099Z,24.67
2022-09-15T02:21:09.626Z,27.15
2022-09-15T02:21:54.090Z,26.20
2022-09-15T02:22:28.508Z,24.83
2022-09-15T02:23:05.803Z,27.88
2022-09-15T02:23:40.848Z,22.50
2022-09-15T02:24:18.996Z,26.88
2022-09-15T02:24:56.970Z,22.73
2022-09-15T02:25:32.892Z,22.65
2022-09-15T02:26:08.621Z,19.13
2022-09-15T02:26:41.909Z,16.10
2022-09-15T02:27:22.268Z,21.33
2022-09-15T02:27:56.173Z,23.58
2022-09-15T02:28:30.311Z,20.98
2022-09-15T02:29:05.262Z,23.02
2022-09-15T02:29:38.230Z,22.88
2022-09-15T02:30:12.026Z,20.65
2022-09-15T02:30:45.330Z,20.83
2022-09-15T02:31:18.906Z,19.30
2022-09-15T02:31:53.163Z,20.73
2022-09-15T02:32:28.172Z,20.95
2022-09-15T02:33:03.045Z,22.23
2022-09-15T02:33:40.993Z,22.58
2022-09-15T02:34:15.917Z,21.98
2022-09-15T02:34:51.848Z,22.58
2022-09-15T02:35:25.348Z,21.50
2022-09-15T02:35:57.742Z,23.15
2022-09-15T02:36:30.855Z,21.58
2022-09-15T02:37:05.013Z,22.33
2022-09-15T02:37:37.689Z,23.33
2022-09-15T02:38:11.170Z,18.70
2022-09-15T02:38:46.621Z,19.88
2022-09-15T02:39:20.685Z,18.95
2022-09-15T02:39:58.210Z,19.65
2022-09-15T02:40:31.670Z,17.48
2022-09-15T02:41:05.634Z,17.75
2022-09-15T02:41:38.061Z,18.45
2022-09-15T02:42:10.747Z,16.05
2022-09-15T02:42:51.967Z,15.95
2022-09-15T02:43:24.336Z,14.82
2022-09-15T02:43:56.708Z,18.52
2022-09-15T02:44:30.930Z,18.30
2022-09-15T02:45:03.878Z,22.80
2022-09-15T02:45:36.404Z,18.42
2022-09-15T02:46:08.860Z,18.15
2022-09-15T02:46:41.675Z,20.92
2022-09-15T02:47:14.088Z,19.20
2022-09-15T02:47:46.388Z,17.38
2022-09-15T02:48:19.046Z,17.02
2022-09-15T02:48:51.327Z,18.40
2022-09-15T02:49:23.785Z,14.90
2022-09-15T02:49:57.248Z,16.00
2022-09-15T02:50:29.929Z,19.02
2022-09-15T02:51:02.244Z,13.98
2022-09-15T02:51:34.605Z,13.52
2022-09-15T02:52:07.619Z,17.10
2022-09-15T02:52:39.917Z,17.05
2022-09-15T02:53:12.356Z,13.85
2022-09-15T02:53:45.758Z,17.15
2022-09-15T02:54:18.225Z,17.63
2022-09-15T02:54:50.657Z,16.70
2022-09-15T02:55:23.588Z,14.40
2022-09-15T02:55:56.601Z,12.85
2022-09-15T02:56:28.956Z,18.60
2022-09-15T02:57:01.270Z,17.23
2022-09-15T02:57:33.576Z,19.38
2022-09-15T02:58:06.070Z,15.70
2022-09-15T02:58:38.339Z,17.58
2022-09-15T02:59:10.640Z,18.48
2022-09-15T03:00:01.830Z,19.15
2022-09-15T03:00:34.577Z,18.50
2022-09-15T03:01:07.874Z,15.40
2022-09-15T03:01:41.057Z,18.52
2022-09-15T03:02:14.015Z,21.67
2022-09-15T03:02:48.451Z,18.63
2022-09-15T03:03:22.373Z,17.17
2022-09-15T03:03:55.078Z,18.48
2022-09-15T03:04:27.451Z,17.45
2022-09-15T03:04:59.742Z,14.77
2022-09-15T03:05:32.051Z,17.55
2022-09-15T03:06:16.668Z,19.83
2022-09-15T03:06:49.973Z,16.17
2022-09-15T03:07:22.306Z,19.20
2022-09-15T03:07:54.905Z,19.27
2022-09-15T03:08:28.788Z,17.67
2022-09-15T03:09:03.098Z,16.40
2022-09-15T03:09:35.356Z,17.85
2022-09-15T03:10:08.277Z,17.60
2022-09-15T03:10:40.565Z,20.08
2022-09-15T03:11:13.014Z,14.00
2022-09-15T03:11:45.463Z,18.58
2022-09-15T03:12:18.003Z,16.40
2022-09-15T03:12:51.376Z,18.42
2022-09-15T03:13:23.706Z,16.05
2022-09-15T03:13:57.380Z,18.30
2022-09-15T03:14:32.808Z,18.98
2022-09-15T03:15:05.627Z,18.05
2022-09-15T03:15:37.929Z,18.80
2022-09-15T03:16:11.268Z,22.95
2022-09-15T03:16:43.659Z,19.83
2022-09-15T03:17:16.278Z,22.15
2022-09-15T03:17:48.827Z,21.75
2022-09-15T03:18:21.095Z,18.20
2022-09-15T03:18:57.077Z,16.63
2022-09-15T03:19:29.816Z,22.92
2022-09-15T03:20:02.608Z,18.95
2022-09-15T03:20:35.247Z,17.15
2022-09-15T03:21:11.697Z,16.00
2022-09-15T03:21:44.134Z,18.48
2022-09-15T03:22:16.544Z,21.48
2022-09-15T03:22:49.752Z,18.63
2022-09-15T03:23:22.077Z,19.38
2022-09-15T03:23:54.748Z,16.83
2022-09-15T03:24:27.048Z,19.20
2022-09-15T03:24:59.506Z,19.48
2022-09-15T03:25:32.337Z,16.02
2022-09-15T03:26:04.963Z,16.67
2022-09-15T03:26:37.240Z,17.73
2022-09-15T03:27:09.569Z,18.75
2022-09-15T03:27:42.625Z,22.73
2022-09-15T03:28:14.940Z,19.70
2022-09-15T03:28:47.398Z,19.45
2022-09-15T03:29:19.760Z,22.17
2022-09-15T03:29:52.048Z,23.08
2022-09-15T03:30:24.345Z,24.75
2022-09-15T03:30:57.127Z,25.40
2022-09-15T03:31:29.382Z,21.92
2022-09-15T03:32:02.102Z,24.02
2022-09-15T03:32:34.626Z,20.35
2022-09-15T03:33:06.993Z,19.45
2022-09-15T03:33:39.560Z,23.95
2022-09-15T03:34:11.954Z,25.67
2022-09-15T03:34:44.257Z,19.83
2022-09-15T03:35:16.614Z,22.92
2022-09-15T03:35:49.556Z,22.88
2022-09-15T03:36:21.872Z,23.50
2022-09-15T03:36:54.144Z,19.40
2022-09-15T03:37:26.668Z,16.92
2022-09-15T03:37:58.915Z,16.73
2022-09-15T03:38:31.192Z,15.75
2022-09-15T03:39:03.568Z,17.52
2022-09-15T03:39:35.782Z,16.67
2022-09-15T03:40:08.691Z,18.48
2022-09-15T03:40:43.361Z,20.20
2022-09-15T03:41:15.816Z,14.38
2022-09-15T03:41:48.158Z,16.02
2022-09-15T03:42:20.989Z,17.75
2022-09-15T03:42:53.246Z,20.77
2022-09-15T03:43:26.063Z,20.02
2022-09-15T03:43:58.396Z,18.27
2022-09-15T03:44:30.761Z,17.85
2022-09-15T03:45:03.985Z,19.77
2022-09-15T03:45:38.079Z,15.40
2022-09-15T03:46:11.851Z,16.35
2022-09-15T03:46:44.177Z,17.83
2022-09-15T03:47:16.621Z,16.42
2022-09-15T03:47:49.088Z,19.42
2022-09-15T03:48:21.357Z,17.20
2022-09-15T03:48:53.627Z,17.55
2022-09-15T03:49:25.899Z,13.88
2022-09-15T03:49:58.519Z,19.20
2022-09-15T03:50:31.015Z,15.40
2022-09-15T03:51:04.310Z,13.90
2022-09-15T03:51:36.770Z,18.48
2022-09-15T03:52:09.104Z,17.90
2022-09-15T03:52:41.445Z,15.30
2022-09-15T03:53:13.701Z,17.75
2022-09-15T03:53:45.979Z,17.13
2022-09-15T03:54:18.323Z,15.60
2022-09-15T03:54:50.628Z,16.90
2022-09-15T03:55:22.972Z,16.17
2022-09-15T03:55:55.243Z,15.73
2022-09-15T03:56:28.671Z,15.13
2022-09-15T03:57:01.171Z,12.95
2022-09-15T03:57:33.828Z,18.35
2022-09-15T03:58:07.052Z,13.13
2022-09-15T03:58:39.379Z,14.98
2022-09-15T03:59:11.713Z,12.45
2022-09-15T03:59:44.059Z,12.07
2022-09-15T04:00:16.415Z,12.45
2022-09-15T04:00:48.964Z,13.77
2022-09-15T04:01:21.928Z,13.07
2022-09-15T04:01:54.359Z,10.85
2022-09-15T04:02:27.095Z,9.55
2022-09-15T04:02:59.643Z,13.00
2022-09-15T04:03:31.984Z,12.23
2022-09-15T04:04:04.260Z,14.77
2022-09-15T04:04:36.992Z,11.10
2022-09-15T04:05:09.568Z,12.82
2022-09-15T04:05:42.344Z,11.50
2022-09-15T04:06:15.385Z,13.05
2022-09-15T04:06:47.679Z,10.65
2022-09-15T04:07:20.283Z,13.25
2022-09-15T04:07:55.588Z,11.60
2022-09-15T04:08:28.012Z,7.47
2022-09-15T04:09:00.391Z,11.48
2022-09-15T04:09:32.838Z,11.07
2022-09-15T04:10:05.718Z,9.07
2022-09-15T04:10:38.523Z,10.13
2022-09-15T04:11:11.798Z,16.17
2022-09-15T04:11:44.110Z,13.20
2022-09-15T04:12:16.618Z,14.60
2022-09-15T04:12:48.956Z,15.05
2022-09-15T04:13:24.428Z,11.23
2022-09-15T04:13:59.243Z,11.80
2022-09-15T04:14:31.633Z,13.65
2022-09-15T04:15:04.525Z,12.57
2022-09-15T04:15:36.836Z,14.25
2022-09-15T04:16:11.020Z,11.90
2022-09-15T04:16:43.784Z,14.75
2022-09-15T04:17:16.681Z,10.48
2022-09-15T04:17:49.189Z,11.55
2022-09-15T04:18:21.425Z,13.77
2022-09-15T04:18:54.550Z,17.38
2022-09-15T04:19:26.900Z,11.80
2022-09-15T04:19:59.341Z,10.18
2022-09-15T04:20:31.853Z,13.63
2022-09-15T04:21:06.144Z,15.60
2022-09-15T04:21:38.524Z,10.93
2022-09-15T04:22:14.267Z,11.18
2022-09-15T04:22:49.538Z,13.73
2022-09-15T04:23:21.781Z,11.18
2022-09-15T04:23:54.473Z,9.73
2022-09-15T04:24:26.911Z,13.13
2022-09-15T04:24:59.313Z,12.10
2022-09-15T04:25:31.649Z,13.07
2022-09-15T04:26:05.314Z,15.65
2022-09-15T04:26:37.689Z,14.38
2022-09-15T04:27:10.222Z,14.82
2022-09-15T04:27:42.753Z,10.93
2022-09-15T04:28:15.068Z,10.77
2022-09-15T04:28:47.785Z,12.20
2022-09-15T04:29:20.077Z,13.02
2022-09-15T04:29:52.631Z,13.45
2022-09-15T04:30:24.987Z,12.40
2022-09-15T04:31:07.674Z,11.68
2022-09-15T04:31:40.224Z,15.95
2022-09-15T04:32:12.515Z,14.63
2022-09-15T04:32:44.831Z,15.18
2022-09-15T04:33:17.246Z,18.27
2022-09-15T04:33:52.085Z,11.05
2022-09-15T04:34:25.080Z,12.20
2022-09-15T04:34:57.513Z,14.30
2022-09-15T04:35:29.744Z,14.38
2022-09-15T04:36:02.618Z,12.13
2022-09-15T04:36:35.000Z,12.75
2022-09-15T04:37:07.780Z,12.93
2022-09-15T04:37:40.449Z,13.43
2022-09-15T04:38:12.841Z,14.70
2022-09-15T04:38:45.625Z,13.98
2022-09-15T04:39:18.133Z,14.80
2022-09-15T04:39:51.042Z,11.20
2022-09-15T04:40:23.413Z,12.52
2022-09-15T04:40:55.932Z,14.23
2022-09-15T04:41:28.537Z,12.90
2022-09-15T04:42:01.288Z,11.68
2022-09-15T04:42:33.582Z,12.82
2022-09-15T04:43:06.820Z,11.57
2022-09-15T04:43:39.298Z,10.38
2022-09-15T04:44:11.915Z,13.07
2022-09-15T04:44:44.264Z,13.48
2022-09-15T04:45:16.584Z,10.02
2022-09-15T04:45:49.047Z,12.73
2022-09-15T04:46:21.362Z,11.23
2022-09-15T04:46:53.882Z,12.15
2022-09-15T04:47:26.296Z,12.38
2022-09-15T04:47:58.756Z,12.40
2022-09-15T04:48:31.749Z,10.35
2022-09-15T04:49:04.068Z,10.85
2022-09-15T04:49:36.358Z,7.72
2022-09-15T04:50:08.889Z,11.68
2022-09-15T04:50:41.342Z,11.05
2022-09-15T04:51:15.522Z,9.80
2022-09-15T04:51:47.772Z,13.10
2022-09-15T04:52:20.219Z,10.85
2022-09-15T04:52:52.957Z,12.68
2022-09-15T04:53:25.349Z,14.82
2022-09-15T04:53:58.052Z,11.98
2022-09-15T04:54:30.395Z,13.93
2022-09-15T04:55:02.756Z,12.85
2022-09-15T04:55:35.405Z,14.50
2022-09-15T04:56:15.770Z,17.88
2022-09-15T04:56:49.078Z,13.98
2022-09-15T04:57:21.564Z,16.27
2022-09-15T04:57:55.466Z,15.55
2022-09-15T04:58:27.934Z,13.52
2022-09-15T04:59:03.876Z,14.90
2022-09-15T04:59:36.865Z,13.05
2022-09-15T05:00:09.557Z,13.43
2022-09-15T05:00:45.473Z,13.77
2022-09-15T05:01:19.259Z,12.38
2022-09-15T05:01:53.723Z,12.68
2022-09-15T05:02:26.195Z,12.38
2022-09-15T05:02:58.781Z,14.75
2022-09-15T05:03:31.099Z,12.25
2022-09-15T05:04:04.703Z,13.48
2022-09-15T05:04:36.970Z,12.10
2022-09-15T05:05:09.556Z,16.55
2022-09-15T05:05:41.886Z,12.65
2022-09-15T05:06:15.840Z,11.70
2022-09-15T05:06:48.186Z,12.05
2022-09-15T05:07:20.898Z,12.93
2022-09-15T05:07:53.370Z,14.35
2022-09-15T05:08:25.605Z,10.25
2022-09-15T05:08:58.232Z,12.93
2022-09-15T05:09:31.458Z,12.07
2022-09-15T05:10:03.998Z,10.77
2022-09-15T05:10:37.588Z,9.80
2022-09-15T05:11:11.375Z,14.02
2022-09-15T05:11:43.722Z,10.68
2022-09-15T05:12:16.014Z,12.38
2022-09-15T05:12:48.339Z,15.02
2022-09-15T05:13:20.645Z,12.00
2022-09-15T05:13:53.157Z,12.80
2022-09-15T05:14:25.531Z,14.63
2022-09-15T05:14:57.858Z,13.65
2022-09-15T05:15:30.368Z,10.40
2022-09-15T05:16:09.904Z,12.38
2022-09-15T05:16:42.442Z,18.13
2022-09-15T05:17:15.307Z,10.25
2022-09-15T05:17:47.710Z,14.23
2022-09-15T05:18:20.066Z,8.88
2022-09-15T05:18:53.778Z,14.25
2022-09-15T05:19:26.156Z,12.18
2022-09-15T05:19:59.065Z,12.23
2022-09-15T05:20:31.357Z,13.73
2022-09-15T05:21:04.416Z,10.43
2022-09-15T05:21:36.737Z,10.20
2022-09-15T05:22:08.999Z,7.53
2022-09-15T05:22:42.063Z,13.02
2022-09-15T05:23:14.660Z,9.82
2022-09-15T05:23:47.253Z,12.13
2022-09-15T05:24:19.522Z,9.45
2022-09-15T05:24:52.212Z,9.00
2022-09-15T05:25:25.610Z,9.57
2022-09-15T05:25:59.076Z,7.63
2022-09-15T05:26:31.938Z,14.68
2022-09-15T05:27:04.306Z,11.95
2022-09-15T05:27:36.701Z,9.77
2022-09-15T05:28:09.006Z,9.52
2022-09-15T05:28:41.473Z,9.43
2022-09-15T05:29:14.557Z,16.95
2022-09-15T05:29:47.221Z,16.88
2022-09-15T05:31:13.606Z,9.75
2022-09-15T05:31:46.103Z,8.57
2022-09-15T05:32:18.448Z,8.77
2022-09-15T05:32:50.712Z,9.85
2022-09-15T05:33:23.582Z,11.30
2022-09-15T05:33:56.351Z,14.13
2022-09-15T05:34:28.653Z,10.43
2022-09-15T05:35:01.292Z,11.57
2022-09-15T05:35:33.617Z,10.70
2022-09-15T05:36:07.327Z,8.48
2022-09-15T05:36:40.168Z,9.00
2022-09-15T05:37:12.543Z,12.18
2022-09-15T05:37:44.963Z,12.27
2022-09-15T05:38:17.240Z,9.27
2022-09-15T05:38:49.583Z,9.68
2022-09-15T05:39:22.091Z,9.30
2022-09-15T05:39:54.466Z,10.98
2022-09-15T05:40:27.122Z,11.48
2022-09-15T05:41:04.128Z,10.05
2022-09-15T05:41:36.385Z,11.43
2022-09-15T05:42:09.318Z,14.35
2022-09-15T05:42:41.607Z,11.98
2022-09-15T05:43:14.267Z,8.05
2022-09-15T05:43:47.247Z,13.43
2022-09-15T05:44:21.542Z,9.95
2022-09-15T05:44:53.841Z,11.05
2022-09-15T05:45:26.208Z,13.27
2022-09-15T05:45:58.450Z,15.15
2022-09-15T05:46:31.268Z,8.60
2022-09-15T05:47:03.673Z,15.27
2022-09-15T05:47:35.943Z,8.40
2022-09-15T05:48:09.718Z,14.32
2022-09-15T05:48:42.699Z,9.57
2022-09-15T05:49:15.122Z,8.70
2022-09-15T05:49:47.651Z,13.57
2022-09-15T05:50:19.918Z,10.48
2022-09-15T05:50:53.281Z,13.68
2022-09-15T05:51:25.646Z,14.70
2022-09-15T05:51:58.043Z,13.25
2022-09-15T05:52:30.492Z,15.07
2022-09-15T05:53:03.143Z,20.88
2022-09-15T05:53:35.820Z,14.02
2022-09-15T05:54:08.301Z,10.45
2022-09-15T05:54:40.601Z,14.27
2022-09-15T05:55:12.873Z,9.57
2022-09-15T05:55:45.194Z,13.32
2022-09-15T05:56:17.645Z,9.90
2022-09-15T05:56:50.072Z,10.88
2022-09-15T05:57:22.388Z,14.23
2022-09-15T05:57:54.755Z,13.80
2022-09-15T05:58:27.816Z,12.73
2022-09-15T05:59:00.230Z,10.60
2022-09-15T05:59:33.591Z,17.42
2022-09-15T06:00:06.310Z,8.48
2022-09-15T06:00:44.188Z,12.95
2022-09-15T06:01:23.429Z,12.45
2022-09-15T06:01:55.855Z,14.82
2022-09-15T06:02:28.266Z,10.82
2022-09-15T06:03:00.763Z,13.07
2022-09-15T06:03:33.390Z,9.63
2022-09-15T06:04:06.636Z,12.63
2022-09-15T06:04:39.378Z,12.70
2022-09-15T06:05:12.062Z,12.77
2022-09-15T06:05:44.351Z,12.43
2022-09-15T06:06:16.747Z,10.98
2022-09-15T06:06:48.976Z,10.93
2022-09-15T06:07:21.248Z,15.75
2022-09-15T06:07:54.932Z,10.45
2022-09-15T06:08:30.683Z,10.02
2022-09-15T06:09:05.523Z,15.88
2022-09-15T06:09:38.239Z,12.18
2022-09-15T06:10:10.876Z,11.57
2022-09-15T06:10:43.437Z,12.48
2022-09-15T06:11:16.994Z,14.07
2022-09-15T06:11:49.319Z,12.68
2022-09-15T06:12:22.150Z,8.98
2022-09-15T06:12:54.860Z,12.10
2022-09-15T06:13:27.261Z,9.93
2022-09-15T06:14:00.748Z,7.35
2022-09-15T06:14:33.136Z,12.25
2022-09-15T06:15:05.688Z,9.55
2022-09-15T06:15:37.952Z,8.00
2022-09-15T06:16:14.532Z,10.95
2022-09-15T06:16:46.851Z,11.13
2022-09-15T06:17:19.462Z,7.78
2022-09-15T06:17:52.053Z,10.02
2022-09-15T06:18:24.309Z,11.50
2022-09-15T06:18:58.914Z,9.25
2022-09-15T06:19:31.305Z,7.72
2022-09-15T06:20:05.631Z,13.23
2022-09-15T06:20:38.653Z,9.98
2022-09-15T06:21:10.936Z,7.55
2022-09-15T06:21:43.229Z,11.50
2022-09-15T06:22:15.668Z,11.02
2022-09-15T06:22:48.190Z,13.30
2022-09-15T06:23:20.461Z,13.48
2022-09-15T06:23:59.771Z,14.60
2022-09-15T06:24:32.182Z,11.38
2022-09-15T06:25:05.289Z,8.75
2022-09-15T06:25:37.832Z,12.50
2022-09-15T06:26:14.364Z,12.70
2022-09-15T06:26:46.646Z,13.60
2022-09-15T06:27:20.762Z,9.48
2022-09-15T06:27:52.993Z,10.00
2022-09-15T06:28:25.267Z,9.20
2022-09-15T06:28:58.594Z,10.25
2022-09-15T06:29:32.683Z,10.00
2022-09-15T06:30:05.157Z,15.02
2022-09-15T06:30:39.274Z,16.05
2022-09-15T06:31:12.532Z,7.78
2022-09-15T06:31:44.912Z,9.90
2022-09-15T06:32:17.510Z,10.48
2022-09-15T06:32:49.814Z,9.10
2022-09-15T06:33:22.075Z,8.95
2022-09-15T06:33:56.070Z,8.65
2022-09-15T06:35:28.781Z,7.03
2022-09-15T06:36:02.735Z,11.40
2022-09-15T06:36:36.616Z,9.70
2022-09-15T06:37:09.227Z,9.43
2022-09-15T06:37:41.705Z,10.18
2022-09-15T06:38:13.990Z,8.32
2022-09-15T06:38:46.764Z,9.35
2022-09-15T06:39:19.466Z,9.15
2022-09-15T06:39:51.800Z,7.70
2022-09-15T06:40:24.593Z,7.50
2022-09-15T06:40:57.989Z,8.27
2022-09-15T06:41:52.506Z,8.27
2022-09-15T06:42:23.622Z,7.20
2022-09-15T06:42:56.771Z,8.82
2022-09-15T06:43:30.484Z,8.52
2022-09-15T06:44:02.919Z,14.52
2022-09-15T06:44:38.713Z,9.00
2022-09-15T06:45:11.093Z,9.77
2022-09-15T06:45:43.683Z,9.38
2022-09-15T06:46:17.823Z,7.18
2022-09-15T06:46:50.459Z,9.40
2022-09-15T06:47:22.716Z,9.25
2022-09-15T06:48:13.642Z,10.95
2022-09-15T06:48:48.573Z,10.27
2022-09-15T06:49:22.303Z,9.45
2022-09-15T06:49:56.152Z,11.52
2022-09-15T06:50:29.025Z,9.27
2022-09-15T06:51:01.745Z,10.07
2022-09-15T06:51:35.830Z,6.95
2022-09-15T06:52:08.196Z,9.98
2022-09-15T06:52:40.429Z,11.48
2022-09-15T06:53:12.899Z,8.32
2022-09-15T06:53:45.765Z,9.43
2022-09-15T06:54:18.236Z,8.35
2022-09-15T06:54:50.549Z,7.13
2022-09-15T06:55:25.029Z,10.15
2022-09-15T06:56:06.962Z,7.10
2022-09-15T06:56:39.277Z,7.95
2022-09-15T06:57:11.597Z,7.40
2022-09-15T06:57:43.848Z,6.40
2022-09-15T06:58:16.413Z,5.88
2022-09-15T06:58:51.972Z,8.43
2022-09-15T06:59:24.895Z,11.27
2022-09-15T06:59:57.364Z,13.35
2022-09-15T07:00:29.848Z,13.02
2022-09-15T07:01:03.825Z,6.05
2022-09-15T07:01:36.324Z,8.93
2022-09-15T07:02:09.653Z,6.97
2022-09-15T07:02:42.044Z,8.15
2022-09-15T07:03:14.431Z,12.45
2022-09-15T07:03:47.048Z,9.00
2022-09-15T07:04:20.132Z,11.73
2022-09-15T07:04:52.397Z,9.25
2022-09-15T07:05:25.677Z,9.52
2022-09-15T07:05:58.489Z,12.45
2022-09-15T07:06:31.608Z,11.88
2022-09-15T07:07:04.075Z,10.57
2022-09-15T07:07:36.368Z,12.63
2022-09-15T07:08:08.623Z,7.90
2022-09-15T07:08:41.888Z,9.48
2022-09-15T07:09:14.438Z,9.88
2022-09-15T07:09:49.039Z,8.98
2022-09-15T07:10:21.614Z,10.38
2022-09-15T07:10:55.216Z,11.95
2022-09-15T07:11:27.532Z,10.57
2022-09-15T07:11:59.987Z,10.52
2022-09-15T07:12:32.737Z,13.98
2022-09-15T07:13:05.159Z,8.30
2022-09-15T07:13:37.604Z,10.07
2022-09-15T07:14:11.176Z,9.82
2022-09-15T07:14:43.998Z,6.28
2022-09-15T07:15:16.301Z,9.90
2022-09-15T07:15:55.684Z,10.57
2022-09-15T07:16:28.231Z,20.15
2022-09-15T07:17:00.556Z,10.82
2022-09-15T07:17:32.899Z,7.20
2022-09-15T07:18:05.548Z,8.27
2022-09-15T07:18:42.821Z,8.07
2022-09-15T07:19:15.822Z,12.40
2022-09-15T07:19:48.071Z,8.63
2022-09-15T07:20:20.366Z,9.30
2022-09-15T07:20:52.731Z,9.00
2022-09-15T07:21:25.039Z,8.10
2022-09-15T07:21:57.362Z,6.32
2022-09-15T07:22:29.698Z,9.50
2022-09-15T07:23:02.378Z,10.95
2022-09-15T07:23:35.533Z,8.70
2022-09-15T07:24:08.002Z,8.32
2022-09-15T07:24:40.318Z,7.20
2022-09-15T07:25:12.620Z,6.85
2022-09-15T07:25:45.420Z,7.40
2022-09-15T07:26:21.698Z,10.30